Vaughan, North Carolina
Current Conditions -  °F | °C
As of 1:56 AM on Friday 28 Nov 2014 (Local Time) from KAVC Reporting Station
Clear Clear  
Wind Chill: 27°   Ceiling: Unl
Heat Index: 32°   Visibility: 10mi
Dew Point: 22°   Wind: 6mph
Humidity: 65%   Direction: 290°WNW
Pressure: 30.29"   Gusts: NA
Location:  36.43°N, 78°W
Report Text: KAVC 280656Z AUTO 29005KT 10SM CLR 00/M06 A3029 RMK AO2 T00011057
Loading
Personal Weather Stations






























Interactive Weather Map New forecast layout! Learn more

10-Day Weather Forecast

Advertisements
Track Severe Weather on mobile